Saint Bonnet de Bellac- Haute Vienne - France
Donnes mto: mercredi, 01/02/2012
Date Horaire Temp. E. Hum. E. P.atmo. Pluie Vent Direction Direction Ensoleilleme Solaire P. de rose Temp au vent Rafales
01/02/2012 00:00 -3,7 C 87 % 1019,6 hPa 0,0 mm 0,0 km/h (0 Bft) E-NE 67 0 min 0 W/m -5,5 C -3,7 C 0,0 km/h (0 Bft)
01/02/2012 00:10 -3,8 C 88 % 1019,4 hPa 0,0 mm 0,0 km/h (0 Bft) NE 45 0 min 0 W/m -5,5 C -3,8 C 0,0 km/h (0 Bft)
01/02/2012 00:20 -4,0 C 87 % 1019,5 hPa 0,0 mm 0,0 km/h (0 Bft) NE 45 0 min 0 W/m -5,8 C -4,0 C 0,0 km/h (0 Bft)
01/02/2012 00:30 -4,2 C 87 % 1019,4 hPa 0,0 mm 0,0 km/h (0 Bft) NE 45 0 min 0 W/m -6,0 C -4,2 C 0,0 km/h (0 Bft)
01/02/2012 00:40 -4,4 C 88 % 1019,4 hPa 0,0 mm 0,0 km/h (0 Bft) NE 45 0 min 0 W/m -6,1 C -4,4 C 0,0 km/h (0 Bft)
01/02/2012 00:50 -4,6 C 88 % 1019,4 hPa 0,0 mm 0,0 km/h (0 Bft) NE 45 0 min 0 W/m -6,3 C -4,6 C 0,0 km/h (0 Bft)
01/02/2012 01:00 -4,7 C 88 % 1019,4 hPa 0,0 mm 0,0 km/h (0 Bft) NE 45 0 min 0 W/m -6,4 C -4,7 C 0,0 km/h (0 Bft)
01/02/2012 01:10 -4,9 C 89 % 1019,3 hPa 0,0 mm 0,0 km/h (0 Bft) NE 45 0 min 0 W/m -6,4 C -4,9 C 0,0 km/h (0 Bft)
01/02/2012 01:20 -4,9 C 89 % 1019,1 hPa 0,0 mm 0,7 km/h (0 Bft) E-NE 67 0 min 0 W/m -6,4 C -4,9 C 0,7 km/h (0 Bft)
01/02/2012 01:30 -4,9 C 89 % 1019,0 hPa 0,0 mm 1,8 km/h (1 Bft) NE 45 0 min 0 W/m -6,4 C -4,9 C 3,2 km/h (1 Bft)
01/02/2012 01:40 -4,8 C 89 % 1019,0 hPa 0,0 mm 0,0 km/h (0 Bft) NE 45 0 min 0 W/m -6,3 C -4,8 C 0,0 km/h (0 Bft)
01/02/2012 01:50 -4,6 C 89 % 1019,0 hPa 0,0 mm 1,8 km/h (1 Bft) NE 45 0 min 0 W/m -6,1 C -4,6 C 6,1 km/h (2 Bft)
01/02/2012 02:02 -4,4 C 90 % 1018,9 hPa 0,0 mm 2,5 km/h (1 Bft) NE 45 0 min 0 W/m -5,8 C -4,4 C 3,2 km/h (1 Bft)
01/02/2012 02:10 -4,1 C 90 % 1018,9 hPa 0,0 mm 2,5 km/h (1 Bft) NE 45 0 min 0 W/m -5,5 C -4,1 C 3,6 km/h (1 Bft)
01/02/2012 02:20 -3,8 C 90 % 1018,9 hPa 0,0 mm 1,8 km/h (1 Bft) E-NE 67 0 min 0 W/m -5,2 C -3,8 C 4,3 km/h (1 Bft)
01/02/2012 02:30 -3,6 C 90 % 1018,9 hPa 0,0 mm 3,6 km/h (1 Bft) E-NE 67 0 min 0 W/m -5,0 C -3,6 C 6,5 km/h (2 Bft)
01/02/2012 02:40 -3,4 C 90 % 1018,9 hPa 0,0 mm 0,7 km/h (0 Bft) E-NE 67 0 min 0 W/m -4,8 C -3,4 C 0,7 km/h (0 Bft)
01/02/2012 02:50 -3,2 C 91 % 1018,9 hPa 0,0 mm 0,0 km/h (0 Bft) E-NE 67 0 min 0 W/m -4,5 C -3,2 C 0,0 km/h (0 Bft)
01/02/2012 03:00 -3,1 C 90 % 1018,8 hPa 0,0 mm 5,0 km/h (1 Bft) NE 45 0 min 0 W/m -4,5 C -5,1 C 5,0 km/h (1 Bft)
01/02/2012 03:10 -2,9 C 91 % 1018,8 hPa 0,0 mm 5,0 km/h (1 Bft) NE 45 0 min 0 W/m -4,2 C -4,9 C 5,0 km/h (1 Bft)
01/02/2012 03:20 -2,9 C 91 % 1018,7 hPa 0,0 mm 5,4 km/h (2 Bft) NE 45 0 min 0 W/m -4,2 C -5,1 C 5,4 km/h (2 Bft)
01/02/2012 03:30 -2,8 C 91 % 1018,4 hPa 0,0 mm 5,0 km/h (1 Bft) N-NE 22 0 min 0 W/m -4,1 C -4,8 C 6,1 km/h (2 Bft)
01/02/2012 03:40 -2,7 C 91 % 1018,4 hPa 0,0 mm 4,3 km/h (1 Bft) E-NE 67 0 min 0 W/m -4,0 C -2,7 C 7,2 km/h (2 Bft)
01/02/2012 03:50 -2,7 C 91 % 1018,2 hPa 0,0 mm 3,2 km/h (1 Bft) N-NE 22 0 min 0 W/m -4,0 C -2,7 C 6,8 km/h (2 Bft)
01/02/2012 04:00 -2,6 C 91 % 1018,1 hPa 0,0 mm 2,9 km/h (1 Bft) NE 45 0 min 0 W/m -3,9 C -2,6 C 4,0 km/h (1 Bft)
01/02/2012 04:10 -2,6 C 91 % 1018,1 hPa 0,0 mm 2,5 km/h (1 Bft) NE 45 0 min 0 W/m -3,9 C -2,6 C 4,3 km/h (1 Bft)
01/02/2012 04:20 -2,5 C 91 % 1018,0 hPa 0,0 mm 3,6 km/h (1 Bft) NE 45 0 min 0 W/m -3,8 C -2,5 C 3,6 km/h (1 Bft)
01/02/2012 04:30 -2,5 C 91 % 1017,9 hPa 0,0 mm 3,2 km/h (1 Bft) NE 45 0 min 0 W/m -3,8 C -2,5 C 4,3 km/h (1 Bft)
01/02/2012 04:40 -2,5 C 91 % 1017,9 hPa 0,0 mm 4,7 km/h (1 Bft) NE 45 0 min 0 W/m -3,8 C -4,3 C 7,9 km/h (2 Bft)
01/02/2012 04:50 -2,5 C 91 % 1017,8 hPa 0,0 mm 4,7 km/h (1 Bft) NE 45 0 min 0 W/m -3,8 C -4,3 C 4,7 km/h (1 Bft)
01/02/2012 05:00 -2,4 C 91 % 1017,8 hPa 0,0 mm 6,5 km/h (2 Bft) N-NE 22 0 min 0 W/m -3,7 C -5,0 C 10,8 km/h (2 Bft)
01/02/2012 05:10 -2,4 C 91 % 1017,7 hPa 0,0 mm 2,9 km/h (1 Bft) E-NE 67 0 min 0 W/m -3,7 C -2,4 C 6,5 km/h (2 Bft)
01/02/2012 05:20 -2,4 C 91 % 1017,5 hPa 0,0 mm 7,9 km/h (2 Bft) NE 45 0 min 0 W/m -3,7 C -5,5 C 12,2 km/h (2 Bft)
01/02/2012 05:30 -2,4 C 91 % 1017,5 hPa 0,0 mm 7,2 km/h (2 Bft) NE 45 0 min 0 W/m -3,7 C -5,3 C 11,5 km/h (2 Bft)
01/02/2012 05:40 -2,4 C 92 % 1017,4 hPa 0,0 mm 4,3 km/h (1 Bft) N 360 0 min 0 W/m -3,5 C -2,4 C 8,6 km/h (2 Bft)
01/02/2012 05:50 -2,3 C 92 % 1017,4 hPa 0,0 mm 5,0 km/h (1 Bft) NE 45 0 min 0 W/m -3,4 C -4,2 C 5,0 km/h (1 Bft)
01/02/2012 06:00 -2,3 C 92 % 1017,3 hPa 0,0 mm 6,8 km/h (2 Bft) N-NE 22 0 min 0 W/m -3,4 C -5,0 C 7,6 km/h (2 Bft)
01/02/2012 06:10 -2,3 C 92 % 1017,3 hPa 0,0 mm 6,1 km/h (2 Bft) N-NE 22 0 min 0 W/m -3,4 C -4,7 C 6,1 km/h (2 Bft)
01/02/2012 06:20 -2,2 C 92 % 1017,2 hPa 0,0 mm 4,7 km/h (1 Bft) E-NE 67 0 min 0 W/m -3,3 C -3,9 C 4,7 km/h (1 Bft)
01/02/2012 06:30 -2,3 C 92 % 1017,2 hPa 0,0 mm 4,3 km/h (1 Bft) N-NE 22 0 min 0 W/m -3,4 C -2,3 C 4,3 km/h (1 Bft)
01/02/2012 06:40 -2,2 C 92 % 1017,2 hPa 0,0 mm 2,9 km/h (1 Bft) NE 45 0 min 0 W/m -3,3 C -2,2 C 7,2 km/h (2 Bft)
01/02/2012 06:50 -2,2 C 92 % 1017,1 hPa 0,0 mm 3,2 km/h (1 Bft) NE 45 0 min 0 W/m -3,3 C -2,2 C 4,3 km/h (1 Bft)
01/02/2012 07:00 -2,2 C 92 % 1016,9 hPa 0,0 mm 5,8 km/h (2 Bft) N-NE 22 0 min 0 W/m -3,3 C -4,5 C 7,9 km/h (2 Bft)
01/02/2012 07:10 -2,2 C 92 % 1017,0 hPa 0,0 mm 5,4 km/h (2 Bft) N-NE 22 0 min 0 W/m -3,3 C -4,3 C 11,9 km/h (2 Bft)
01/02/2012 07:20 -2,2 C 92 % 1016,8 hPa 0,0 mm 5,4 km/h (2 Bft) N-NE 22 0 min 0 W/m -3,3 C -4,3 C 8,3 km/h (2 Bft)
01/02/2012 07:30 -2,2 C 92 % 1016,8 hPa 0,0 mm 2,9 km/h (1 Bft) N-NE 22 0 min 0 W/m -3,3 C -2,2 C 4,0 km/h (1 Bft)
01/02/2012 07:40 -2,1 C 92 % 1016,8 hPa 0,0 mm 4,3 km/h (1 Bft) N-NE 22 0 min 0 W/m -3,2 C -2,1 C 10,8 km/h (2 Bft)
01/02/2012 07:50 -2,1 C 92 % 1016,7 hPa 0,0 mm 5,8 km/h (2 Bft) E 90 0 min 0 W/m -3,2 C -4,4 C 7,6 km/h (2 Bft)
01/02/2012 08:00 -2,0 C 92 % 1016,8 hPa 0,0 mm 5,8 km/h (2 Bft) NE 45 0 min 0 W/m -3,1 C -4,2 C 5,8 km/h (2 Bft)
01/02/2012 08:10 -2,0 C 92 % 1016,8 hPa 0,0 mm 5,8 km/h (2 Bft) NE 45 0 min 0 W/m -3,1 C -4,2 C 10,8 km/h (2 Bft)
01/02/2012 08:20 -1,9 C 92 % 1016,8 hPa 0,0 mm 7,6 km/h (2 Bft) N-NE 22 0 min 0 W/m -3,0 C -4,8 C 11,9 km/h (2 Bft)
01/02/2012 08:30 -1,9 C 92 % 1016,8 hPa 0,0 mm 6,1 km/h (2 Bft) N-NE 22 0 min 0 W/m -3,0 C -4,3 C 7,9 km/h (2 Bft)
01/02/2012 08:40 -1,8 C 91 % 1016,8 hPa 0,0 mm 6,5 km/h (2 Bft) N-NE 22 2 min 0 W/m -3,1 C -4,3 C 8,6 km/h (2 Bft)
01/02/2012 08:50 -1,8 C 91 % 1016,9 hPa 0,0 mm 5,0 km/h (1 Bft) N-NE 22 2 min 0 W/m -3,1 C -3,6 C 7,6 km/h (2 Bft)
01/02/2012 09:00 -1,8 C 91 % 1017,0 hPa 0,0 mm 6,5 km/h (2 Bft) N-NE 22 2 min 0 W/m -3,1 C -4,3 C 10,8 km/h (2 Bft)
01/02/2012 09:10 -1,8 C 91 % 1017,0 hPa 0,0 mm 5,8 km/h (2 Bft) NE 45 2 min 0 W/m -3,1 C -4,0 C 7,2 km/h (2 Bft)
01/02/2012 09:20 -1,7 C 90 % 1017,0 hPa 0,0 mm 6,8 km/h (2 Bft) E-NE 67 2 min 0 W/m -3,1 C -4,3 C 6,8 km/h (2 Bft)
01/02/2012 09:30 -1,7 C 89 % 1017,0 hPa 0,0 mm 11,5 km/h (2 Bft) N-NE 22 2 min 0 W/m -3,3 C -5,7 C 13,0 km/h (3 Bft)
01/02/2012 09:40 -1,8 C 89 % 1017,0 hPa 0,0 mm 17,6 km/h (3 Bft) N-NE 22 2 min 0 W/m -3,4 C -7,1 C 27,0 km/h (5 Bft)
01/02/2012 09:50 -1,8 C 87 % 1017,0 hPa 0,0 mm 9,4 km/h (2 Bft) N-NE 22 2 min 0 W/m -3,7 C -5,3 C 12,6 km/h (3 Bft)
01/02/2012 10:00 -1,8 C 85 % 1016,9 hPa 0,0 mm 14,4 km/h (3 Bft) N-NE 22 2 min 0 W/m -4,0 C -6,5 C 25,6 km/h (4 Bft)
01/02/2012 10:10 -1,8 C 84 % 1016,9 hPa 0,0 mm 6,5 km/h (2 Bft) N-NE 22 2 min 0 W/m -4,1 C -4,3 C 9,7 km/h (2 Bft)
01/02/2012 10:20 -1,8 C 83 % 1016,8 hPa 0,0 mm 9,4 km/h (2 Bft) N-NE 22 2 min 0 W/m -4,3 C -5,3 C 13,0 km/h (3 Bft)
01/02/2012 10:30 -1,8 C 83 % 1016,9 hPa 0,0 mm 16,2 km/h (3 Bft) NE 45 2 min 0 W/m -4,3 C -6,9 C 20,5 km/h (4 Bft)
01/02/2012 10:40 -1,9 C 81 % 1017,0 hPa 0,0 mm 12,2 km/h (2 Bft) N-NE 22 2 min 0 W/m -4,7 C -6,2 C 16,9 km/h (3 Bft)
01/02/2012 10:50 -1,8 C 80 % 1017,0 hPa 0,0 mm 17,6 km/h (3 Bft) NE 45 2 min 0 W/m -4,8 C -7,1 C 21,2 km/h (4 Bft)
01/02/2012 11:00 -1,8 C 80 % 1017,0 hPa 0,0 mm 7,6 km/h (2 Bft) E-NE 67 2 min 0 W/m -4,8 C -4,7 C 11,5 km/h (2 Bft)
01/02/2012 11:10 -1,9 C 79 % 1016,9 hPa 0,0 mm 14,0 km/h (3 Bft) NE 45 2 min 0 W/m -5,0 C -6,6 C 20,9 km/h (4 Bft)
01/02/2012 11:20 -2,0 C 80 % 1016,9 hPa 0,0 mm 12,6 km/h (3 Bft) NE 45 2 min 0 W/m -5,0 C -6,4 C 14,0 km/h (3 Bft)
01/02/2012 11:30 -2,1 C 80 % 1017,0 hPa 0,0 mm 9,4 km/h (2 Bft) NE 45 2 min 0 W/m -5,1 C -5,6 C 13,0 km/h (3 Bft)
01/02/2012 11:40 -2,0 C 80 % 1017,0 hPa 0,0 mm 9,0 km/h (2 Bft) N-NE 22 2 min 0 W/m -5,0 C -5,4 C 12,6 km/h (3 Bft)
01/02/2012 11:50 -1,9 C 80 % 1016,6 hPa 0,0 mm 10,8 km/h (2 Bft) NE 45 2 min 0 W/m -4,9 C -5,8 C 13,0 km/h (3 Bft)
01/02/2012 12:00 -1,4 C 80 % 1016,7 hPa 0,0 mm 9,7 km/h (2 Bft) NE 45 2 min 0 W/m -4,4 C -4,9 C 10,8 km/h (2 Bft)
01/02/2012 12:10 -1,1 C 79 % 1016,7 hPa 0,0 mm 9,4 km/h (2 Bft) NE 45 2 min 0 W/m -4,3 C -4,5 C 9,7 km/h (2 Bft)
01/02/2012 12:20 -1,4 C 77 % 1016,6 hPa 0,0 mm 11,9 km/h (2 Bft) N-NE 22 2 min 0 W/m -4,9 C -5,5 C 14,0 km/h (3 Bft)
01/02/2012 12:30 -1,7 C 78 % 1016,7 hPa 0,0 mm 12,2 km/h (2 Bft) NE 45 2 min 0 W/m -5,0 C -5,9 C 19,4 km/h (3 Bft)
01/02/2012 12:40 -1,8 C 78 % 1016,6 hPa 0,0 mm 13,0 km/h (3 Bft) N-NE 22 2 min 0 W/m -5,1 C -6,2 C 14,0 km/h (3 Bft)
01/02/2012 12:50 -1,9 C 79 % 1016,5 hPa 0,0 mm 13,7 km/h (3 Bft) N-NE 22 2 min 0 W/m -5,0 C -6,5 C 15,8 km/h (3 Bft)
01/02/2012 13:00 -2,1 C 79 % 1016,5 hPa 0,0 mm 9,0 km/h (2 Bft) NE 45 2 min 0 W/m -5,2 C -5,5 C 14,8 km/h (3 Bft)
01/02/2012 13:10 -2,2 C 80 % 1016,5 hPa 0,0 mm 6,1 km/h (2 Bft) N-NE 22 2 min 0 W/m -5,2 C -4,6 C 6,1 km/h (2 Bft)
01/02/2012 13:20 -2,2 C 80 % 1016,6 hPa 0,0 mm 6,5 km/h (2 Bft) NE 45 2 min 0 W/m -5,2 C -4,8 C 9,4 km/h (2 Bft)
01/02/2012 13:30 -2,2 C 80 % 1016,7 hPa 0,0 mm 8,6 km/h (2 Bft) N 360 2 min 0 W/m -5,2 C -5,5 C 13,7 km/h (3 Bft)
01/02/2012 13:40 -2,2 C 79 % 1016,6 hPa 0,0 mm 7,9 km/h (2 Bft) NE 45 2 min 0 W/m -5,3 C -5,3 C 10,8 km/h (2 Bft)
01/02/2012 13:50 -2,3 C 80 % 1016,6 hPa 0,0 mm 10,1 km/h (2 Bft) NE 45 2 min 0 W/m -5,3 C -6,1 C 12,2 km/h (2 Bft)
01/02/2012 14:00 -2,4 C 81 % 1016,5 hPa 0,0 mm 9,4 km/h (2 Bft) E-NE 67 2 min 0 W/m -5,2 C -6,0 C 13,7 km/h (3 Bft)
01/02/2012 14:10 -2,4 C 81 % 1016,4 hPa 0,0 mm 9,4 km/h (2 Bft) N-NE 22 2 min 0 W/m -5,2 C -6,0 C 12,6 km/h (3 Bft)
01/02/2012 14:20 -2,5 C 81 % 1016,4 hPa 0,0 mm 6,8 km/h (2 Bft) N-NE 22 2 min 0 W/m -5,3 C -5,2 C 11,5 km/h (2 Bft)
01/02/2012 14:30 -2,6 C 81 % 1016,4 hPa 0,0 mm 9,0 km/h (2 Bft) NE 45 2 min 0 W/m -5,4 C -6,1 C 9,0 km/h (2 Bft)
01/02/2012 14:40 -2,6 C 81 % 1016,5 hPa 0,0 mm 12,6 km/h (3 Bft) NE 45 2 min 0 W/m -5,4 C -7,1 C 19,8 km/h (3 Bft)
01/02/2012 14:50 -2,6 C 81 % 1016,5 hPa 0,0 mm 14,0 km/h (3 Bft) NE 45 2 min 0 W/m -5,4 C -7,4 C 17,6 km/h (3 Bft)
01/02/2012 15:00 -2,6 C 81 % 1016,4 hPa 0,0 mm 16,2 km/h (3 Bft) NE 45 2 min 0 W/m -5,4 C -7,9 C 23,4 km/h (4 Bft)
01/02/2012 15:10 -2,6 C 82 % 1016,5 hPa 0,0 mm 14,0 km/h (3 Bft) N 360 2 min 0 W/m -5,2 C -7,4 C 20,2 km/h (4 Bft)
01/02/2012 15:20 -2,6 C 83 % 1016,4 hPa 0,0 mm 13,0 km/h (3 Bft) N-NE 22 2 min 0 W/m -5,1 C -7,2 C 19,4 km/h (3 Bft)
01/02/2012 15:30 -2,4 C 84 % 1016,3 hPa 0,0 mm 7,2 km/h (2 Bft) N-NE 22 2 min 0 W/m -4,7 C -5,3 C 7,2 km/h (2 Bft)
01/02/2012 15:40 -2,4 C 84 % 1016,4 hPa 0,0 mm 10,1 km/h (2 Bft) E-NE 67 2 min 0 W/m -4,7 C -6,2 C 11,5 km/h (2 Bft)
01/02/2012 15:50 -2,4 C 84 % 1016,4 hPa 0,0 mm 10,4 km/h (2 Bft) N-NE 22 2 min 0 W/m -4,7 C -6,3 C 10,4 km/h (2 Bft)
01/02/2012 16:00 -2,4 C 84 % 1016,5 hPa 0,0 mm 13,7 km/h (3 Bft) N-NE 22 2 min 0 W/m -4,7 C -7,1 C 16,6 km/h (3 Bft)
01/02/2012 16:10 -2,5 C 84 % 1016,6 hPa 0,0 mm 9,4 km/h (2 Bft) NE 45 2 min 0 W/m -4,8 C -6,1 C 12,6 km/h (3 Bft)
01/02/2012 16:20 -2,5 C 84 % 1016,5 hPa 0,0 mm 11,2 km/h (2 Bft) NE 45 2 min 0 W/m -4,8 C -6,6 C 15,5 km/h (3 Bft)
01/02/2012 16:30 -2,5 C 84 % 1016,5 hPa 0,0 mm 9,0 km/h (2 Bft) N-NE 22 2 min 0 W/m -4,8 C -6,0 C 9,0 km/h (2 Bft)
01/02/2012 16:40 -2,5 C 85 % 1016,5 hPa 0,0 mm 15,8 km/h (3 Bft) NE 45 2 min 0 W/m -4,7 C -7,7 C 27,0 km/h (5 Bft)
01/02/2012 16:50 -2,6 C 85 % 1016,6 hPa 0,0 mm 6,8 km/h (2 Bft) NE 45 2 min 0 W/m -4,8 C -5,3 C 12,2 km/h (2 Bft)
01/02/2012 17:00 -2,6 C 85 % 1016,5 hPa 0,0 mm 7,9 km/h (2 Bft) N 360 2 min 0 W/m -4,8 C -5,8 C 11,2 km/h (2 Bft)
01/02/2012 17:10 -2,6 C 85 % 1016,5 hPa 0,0 mm 9,4 km/h (2 Bft) N 360 2 min 0 W/m -4,8 C -6,2 C 18,4 km/h (3 Bft)
01/02/2012 17:20 -2,6 C 85 % 1016,6 hPa 0,0 mm 11,9 km/h (2 Bft) NE 45 2 min 0 W/m -4,8 C -6,9 C 23,0 km/h (4 Bft)
01/02/2012 17:30 -2,6 C 85 % 1016,7 hPa 0,0 mm 9,4 km/h (2 Bft) N 360 2 min 0 W/m -4,8 C -6,2 C 11,5 km/h (2 Bft)
01/02/2012 17:40 -2,7 C 85 % 1016,7 hPa 0,0 mm 10,1 km/h (2 Bft) N 360 2 min 0 W/m -4,9 C -6,6 C 11,5 km/h (2 Bft)
01/02/2012 17:50 -2,8 C 84 % 1016,9 hPa 0,0 mm 9,7 km/h (2 Bft) E-NE 67 0 min 0 W/m -5,1 C -6,6 C 15,8 km/h (3 Bft)
01/02/2012 18:00 -2,9 C 84 % 1017,0 hPa 0,0 mm 8,3 km/h (2 Bft) N-NE 22 0 min 0 W/m -5,2 C -6,2 C 12,6 km/h (3 Bft)
01/02/2012 18:10 -3,1 C 84 % 1017,1 hPa 0,0 mm 13,0 km/h (3 Bft) NE 45 0 min 0 W/m -5,4 C -7,8 C 13,3 km/h (3 Bft)
01/02/2012 18:20 -2,9 C 84 % 1017,2 hPa 0,0 mm 7,2 km/h (2 Bft) N-NE 22 0 min 0 W/m -5,2 C -5,9 C 8,6 km/h (2 Bft)
01/02/2012 18:30 -2,9 C 84 % 1017,2 hPa 0,0 mm 8,3 km/h (2 Bft) NE 45 0 min 0 W/m -5,2 C -6,2 C 9,4 km/h (2 Bft)
01/02/2012 18:40 -2,9 C 84 % 1017,2 hPa 0,0 mm 11,2 km/h (2 Bft) N-NE 22 0 min 0 W/m -5,2 C -7,1 C 11,2 km/h (2 Bft)
01/02/2012 18:50 -2,9 C 84 % 1017,2 hPa 0,0 mm 8,6 km/h (2 Bft) E-NE 67 0 min 0 W/m -5,2 C -6,3 C 13,3 km/h (3 Bft)
01/02/2012 19:00 -2,9 C 84 % 1017,2 hPa 0,0 mm 9,4 km/h (2 Bft) N-NE 22 0 min 0 W/m -5,2 C -6,6 C 12,6 km/h (3 Bft)
01/02/2012 19:10 -3,1 C 85 % 1017,1 hPa 0,0 mm 7,6 km/h (2 Bft) N-NE 22 0 min 0 W/m -5,3 C -6,2 C 7,9 km/h (2 Bft)
01/02/2012 19:20 -3,1 C 85 % 1017,1 hPa 0,0 mm 8,6 km/h (2 Bft) NE 45 0 min 0 W/m -5,3 C -6,6 C 14,8 km/h (3 Bft)
01/02/2012 19:30 -3,1 C 85 % 1017,1 hPa 0,0 mm 8,6 km/h (2 Bft) N-NE 22 0 min 0 W/m -5,3 C -6,6 C 13,7 km/h (3 Bft)
01/02/2012 19:40 -3,1 C 85 % 1017,2 hPa 0,0 mm 8,6 km/h (2 Bft) N-NE 22 0 min 0 W/m -5,3 C -6,6 C 14,0 km/h (3 Bft)
01/02/2012 19:50 -3,1 C 84 % 1017,3 hPa 0,0 mm 9,4 km/h (2 Bft) E-NE 67 0 min 0 W/m -5,4 C -6,8 C 11,9 km/h (2 Bft)
01/02/2012 20:00 -3,1 C 84 % 1017,2 hPa 0,0 mm 9,0 km/h (2 Bft) N-NE 22 0 min 0 W/m -5,4 C -6,7 C 11,5 km/h (2 Bft)
01/02/2012 20:10 -3,1 C 84 % 1017,2 hPa 0,0 mm 13,7 km/h (3 Bft) NE 45 0 min 0 W/m -5,4 C -8,0 C 14,8 km/h (3 Bft)
01/02/2012 20:20 -3,1 C 83 % 1017,3 hPa 0,0 mm 8,3 km/h (2 Bft) N-NE 22 0 min 0 W/m -5,6 C -6,5 C 11,2 km/h (2 Bft)
01/02/2012 20:30 -3,1 C 82 % 1017,3 hPa 0,0 mm 8,3 km/h (2 Bft) NE 45 0 min 0 W/m -5,7 C -6,5 C 11,5 km/h (2 Bft)
01/02/2012 20:40 -3,1 C 82 % 1017,2 hPa 0,0 mm 10,4 km/h (2 Bft) N-NE 22 0 min 0 W/m -5,7 C -7,1 C 19,4 km/h (3 Bft)
01/02/2012 20:50 -3,1 C 81 % 1017,3 hPa 0,0 mm 11,2 km/h (2 Bft) N-NE 22 0 min 0 W/m -5,9 C -7,4 C 19,1 km/h (3 Bft)
01/02/2012 21:00 -3,2 C 81 % 1017,3 hPa 0,0 mm 10,4 km/h (2 Bft) NE 45 0 min 0 W/m -6,0 C -7,3 C 10,8 km/h (2 Bft)
01/02/2012 21:10 -3,2 C 80 % 1017,3 hPa 0,0 mm 12,6 km/h (3 Bft) N-NE 22 0 min 0 W/m -6,1 C -7,8 C 12,6 km/h (3 Bft)
01/02/2012 21:20 -3,2 C 80 % 1017,4 hPa 0,0 mm 7,9 km/h (2 Bft) N-NE 22 0 min 0 W/m -6,1 C -6,5 C 15,1 km/h (3 Bft)
01/02/2012 21:30 -3,2 C 80 % 1017,5 hPa 0,0 mm 11,5 km/h (2 Bft) N-NE 22 0 min 0 W/m -6,1 C -7,6 C 16,2 km/h (3 Bft)
01/02/2012 21:40 -3,3 C 79 % 1017,5 hPa 0,0 mm 6,8 km/h (2 Bft) NE 45 0 min 0 W/m -6,4 C -6,2 C 11,2 km/h (2 Bft)
01/02/2012 21:50 -3,4 C 80 % 1017,4 hPa 0,0 mm 7,6 km/h (2 Bft) N-NE 22 0 min 0 W/m -6,3 C -6,6 C 12,2 km/h (2 Bft)
01/02/2012 22:00 -3,4 C 80 % 1017,5 hPa 0,0 mm 9,7 km/h (2 Bft) N-NE 22 0 min 0 W/m -6,3 C -7,3 C 17,3 km/h (3 Bft)
01/02/2012 22:10 -3,4 C 80 % 1017,5 hPa 0,0 mm 10,1 km/h (2 Bft) N-NE 22 0 min 0 W/m -6,3 C -7,4 C 11,9 km/h (2 Bft)
01/02/2012 22:20 -3,4 C 79 % 1017,6 hPa 0,0 mm 11,5 km/h (2 Bft) N-NE 22 0 min 0 W/m -6,5 C -7,8 C 17,6 km/h (3 Bft)
01/02/2012 22:30 -3,4 C 79 % 1017,5 hPa 0,0 mm 6,8 km/h (2 Bft) NE 45 0 min 0 W/m -6,5 C -6,3 C 11,2 km/h (2 Bft)
01/02/2012 22:40 -3,5 C 80 % 1017,6 hPa 0,0 mm 9,7 km/h (2 Bft) NE 45 0 min 0 W/m -6,4 C -7,4 C 10,8 km/h (2 Bft)
01/02/2012 22:50 -3,5 C 80 % 1017,7 hPa 0,0 mm 9,7 km/h (2 Bft) NE 45 0 min 0 W/m -6,4 C -7,4 C 13,3 km/h (3 Bft)
01/02/2012 23:00 -3,6 C 79 % 1017,7 hPa 0,0 mm 11,2 km/h (2 Bft) E-NE 67 0 min 0 W/m -6,7 C -8,0 C 18,0 km/h (3 Bft)
01/02/2012 23:10 -3,6 C 79 % 1017,8 hPa 0,0 mm 10,8 km/h (2 Bft) N-NE 22 0 min 0 W/m -6,7 C -7,8 C 15,8 km/h (3 Bft)
01/02/2012 23:20 -3,6 C 79 % 1017,7 hPa 0,0 mm 8,6 km/h (2 Bft) N-NE 22 0 min 0 W/m -6,7 C -7,2 C 13,7 km/h (3 Bft)
01/02/2012 23:30 -3,6 C 79 % 1017,5 hPa 0,0 mm 6,5 km/h (2 Bft) N-NE 22 0 min 0 W/m -6,7 C -6,4 C 7,9 km/h (2 Bft)
01/02/2012 23:40 -3,6 C 79 % 1017,5 hPa 0,0 mm 12,2 km/h (2 Bft) N-NE 22 0 min 0 W/m -6,7 C -8,2 C 20,9 km/h (4 Bft)
01/02/2012 23:50 -3,7 C 78 % 1017,4 hPa 0,0 mm 6,8 km/h (2 Bft) NE 45 0 min 0 W/m -7,0 C -6,6 C 10,1 km/h (2 Bft)
_ Min-Heure 01:30 12:20 15:30 - 02:50 - - - - 23:50 23:40 02:50
Minimum _ -4,9 C 77 % 1016,3 hPa - 0,0 km/h (0 Bft) - - - - -7,0 C -8,2 C 0,0 km/h (0 Bft)
_ Max-Heure 12:10 08:30 00:00 23:50 10:50 - - 17:40 23:50 08:30 07:40 16:40
Maximum _ -1,1 C 92 % 1019,6 hPa 0,0 mm 17,6 km/h
NE (3 Bft)
- - 2 min 0 W/m -3,0 C -2,1 C 27,0 km/h
NE (5 Bft)
Moyenne _ -2,7 C 85 % 1017,3 hPa #0,0 mm 7,7 km/h (2 Bft) NE - #1:50 h 0 W/m -4,9 C -5,5 C 10,8 km/h (2 Bft)
Saint Bonnet de Bellac- Haute Vienne - France